Time;durP1;ratioP1;P1;durP2;ratioP2;P2;SDS_P1;SDS_P2;PMS_P1;PMS_P2;Temp;Humidity;BMP_temperature;BMP_pressure;BME280_temperature;BME280_humidity;BME280_pressure;Samples;Min_cycle;Max_cycle;Signal;HPM_P1;HPM_P2
2024/03/10 00:00:44;;;;;;;2.33;2.23;;;;;;;;;;6312710;28;20464;-60
2024/03/10 00:03:49;;;;;;;1.93;1.93;;;;;;;;;;6311887;28;20304;-60
2024/03/10 00:06:53;;;;;;;1.90;1.70;;;;;;;;;;6312528;28;20596;-59
2024/03/10 00:09:57;;;;;;;1.73;1.73;;;;;;;;;;6306677;28;20319;-60
2024/03/10 00:13:01;;;;;;;1.93;1.93;;;;;;;;;;6286383;28;20289;-59
2024/03/10 00:16:05;;;;;;;1.80;1.80;;;;;;;;;;6287215;28;20477;-60
2024/03/10 00:19:11;;;;;;;2.10;2.00;;;;;;;;;;6287045;28;20291;-60
2024/03/10 00:22:15;;;;;;;2.30;2.20;;;;;;;;;;6268839;28;20295;-59
2024/03/10 00:25:19;;;;;;;2.03;2.03;;;;;;;;;;6286686;28;20292;-59
2024/03/10 00:28:23;;;;;;;2.20;2.20;;;;;;;;;;6285982;28;20294;-59
2024/03/10 00:31:27;;;;;;;2.00;2.00;;;;;;;;;;6286841;28;20300;-59
2024/03/10 00:34:32;;;;;;;2.20;2.10;;;;;;;;;;6286531;28;20484;-59
2024/03/10 00:37:36;;;;;;;2.03;1.93;;;;;;;;;;6285809;28;20287;-59
2024/03/10 00:40:40;;;;;;;2.07;2.07;;;;;;;;;;6286897;28;20296;-60
2024/03/10 00:43:44;;;;;;;1.90;1.90;;;;;;;;;;6286149;28;20409;-60
2024/03/10 00:46:47;;;;;;;2.03;2.03;;;;;;;;;;6285120;28;20267;-59
2024/03/10 00:49:53;;;;;;;1.80;1.80;;;;;;;;;;6285759;28;20294;-60
2024/03/10 00:52:57;;;;;;;2.00;1.90;;;;;;;;;;6285490;28;20533;-59
2024/03/10 00:56:02;;;;;;;3.43;1.90;;;;;;;;;;6285676;28;20241;-60
2024/03/10 00:59:06;;;;;;;2.10;2.10;;;;;;;;;;6285430;28;20307;-59
2024/03/10 01:02:10;;;;;;;2.00;1.90;;;;;;;;;;6285653;28;20291;-60
2024/03/10 01:05:16;;;;;;;1.90;1.80;;;;;;;;;;6285470;28;20524;-60
2024/03/10 01:08:20;;;;;;;1.67;1.67;;;;;;;;;;6288023;28;20297;-59
2024/03/10 01:11:24;;;;;;;2.07;2.07;;;;;;;;;;6310132;28;20305;-59
2024/03/10 01:14:28;;;;;;;2.30;2.07;;;;;;;;;;6310256;28;20451;-59
2024/03/10 01:17:32;;;;;;;2.53;2.00;;;;;;;;;;6309964;28;20304;-59
2024/03/10 01:20:37;;;;;;;2.20;2.20;;;;;;;;;;6310426;28;20575;-59
2024/03/10 01:23:41;;;;;;;1.90;1.90;;;;;;;;;;6308559;28;20287;-59
2024/03/10 01:26:45;;;;;;;2.23;2.00;;;;;;;;;;6309739;28;20287;-60
2024/03/10 01:29:49;;;;;;;2.10;2.00;;;;;;;;;;6310022;28;20299;-59
2024/03/10 01:32:53;;;;;;;2.87;1.83;;;;;;;;;;6309794;28;20293;-59
2024/03/10 01:35:58;;;;;;;1.90;1.80;;;;;;;;;;6310555;28;20292;-59
2024/03/10 01:39:02;;;;;;;1.90;1.90;;;;;;;;;;6310278;28;20290;-59
2024/03/10 01:42:06;;;;;;;2.13;2.03;;;;;;;;;;6310270;28;20298;-59
2024/03/10 01:45:10;;;;;;;1.73;1.73;;;;;;;;;;6309584;28;20295;-59
2024/03/10 01:48:14;;;;;;;2.03;1.93;;;;;;;;;;6309786;28;20288;-59
2024/03/10 01:51:20;;;;;;;2.10;2.00;;;;;;;;;;6310129;28;20411;-60
2024/03/10 01:54:28;;;;;;;1.83;1.83;;;;;;;;;;6309536;28;20539;-60
2024/03/10 01:57:32;;;;;;;2.10;2.10;;;;;;;;;;6308847;28;20293;-60
2024/03/10 02:00:38;;;;;;;2.20;2.20;;;;;;;;;;6309547;28;20300;-59
2024/03/10 02:03:43;;;;;;;2.20;2.00;;;;;;;;;;6309088;28;20298;-60
2024/03/10 02:06:50;;;;;;;2.00;2.00;;;;;;;;;;6309849;28;20300;-59
2024/03/10 02:09:54;;;;;;;2.20;2.20;;;;;;;;;;6308590;28;20329;-60
2024/03/10 02:12:58;;;;;;;2.53;2.00;;;;;;;;;;6308755;28;20314;-60
2024/03/10 02:16:02;;;;;;;1.67;1.67;;;;;;;;;;6309536;28;20346;-59
2024/03/10 02:19:07;;;;;;;2.27;2.00;;;;;;;;;;6309255;28;20297;-59
2024/03/10 02:22:12;;;;;;;2.43;1.90;;;;;;;;;;6309173;28;20297;-59
2024/03/10 02:25:17;;;;;;;1.77;1.77;;;;;;;;;;6308854;28;20295;-58
2024/03/10 02:28:34;;;;;;;1.77;1.70;;;;;;;;;;6308333;28;20302;-60
2024/03/10 02:48:37;;;;;;;1.60;1.60;;;;;;;;;;6261266;28;20297;-58
2024/03/10 02:51:42;;;;;;;2.00;2.00;;;;;;;;;;6314056;28;20291;-59
2024/03/10 02:54:46;;;;;;;2.27;1.90;;;;;;;;;;6313571;28;20300;-58
2024/03/10 02:57:50;;;;;;;1.90;1.90;;;;;;;;;;6312765;28;20290;-59
2024/03/10 03:00:55;;;;;;;2.13;1.97;;;;;;;;;;6313910;28;20604;-59
2024/03/10 03:03:59;;;;;;;2.50;1.90;;;;;;;;;;6313192;28;20438;-59
2024/03/10 03:07:03;;;;;;;2.13;2.13;;;;;;;;;;6313675;28;20298;-59
2024/03/10 03:10:07;;;;;;;2.10;2.00;;;;;;;;;;6312953;28;20305;-58
2024/03/10 03:13:11;;;;;;;1.87;1.87;;;;;;;;;;6313106;28;20564;-59
2024/03/10 03:16:18;;;;;;;2.10;2.00;;;;;;;;;;6313888;28;20294;-58
2024/03/10 03:19:22;;;;;;;2.20;2.20;;;;;;;;;;6313016;28;20483;-58
2024/03/10 03:22:26;;;;;;;4.37;2.20;;;;;;;;;;6312615;28;20296;-60
2024/03/10 03:25:30;;;;;;;2.23;2.13;;;;;;;;;;6313081;28;20290;-59
2024/03/10 03:28:34;;;;;;;2.10;2.10;;;;;;;;;;6312658;28;20296;-59
2024/03/10 03:31:39;;;;;;;1.80;1.80;;;;;;;;;;6312840;28;20286;-59
2024/03/10 03:34:43;;;;;;;2.27;2.07;;;;;;;;;;6312242;28;20481;-60
2024/03/10 03:37:47;;;;;;;2.23;2.10;;;;;;;;;;6311131;28;20284;-59
2024/03/10 03:40:51;;;;;;;2.20;2.00;;;;;;;;;;6312662;28;20551;-59
2024/03/10 03:43:55;;;;;;;3.73;2.40;;;;;;;;;;6311996;28;20300;-59
2024/03/10 03:47:00;;;;;;;3.77;2.97;;;;;;;;;;6312174;28;20408;-59
2024/03/10 03:50:05;;;;;;;2.73;2.63;;;;;;;;;;6311337;28;20292;-59
2024/03/10 03:53:09;;;;;;;2.57;2.40;;;;;;;;;;6312008;28;20286;-59
2024/03/10 03:56:13;;;;;;;2.33;2.23;;;;;;;;;;6312317;28;20296;-59
2024/03/10 03:59:18;;;;;;;2.73;2.63;;;;;;;;;;6311989;28;20287;-59
2024/03/10 04:02:25;;;;;;;2.47;2.30;;;;;;;;;;6321564;28;20574;-59
2024/03/10 04:05:31;;;;;;;2.23;2.07;;;;;;;;;;6310208;28;20297;-59
2024/03/10 04:08:35;;;;;;;2.00;1.90;;;;;;;;;;6311264;28;20311;-59
2024/03/10 04:11:40;;;;;;;2.03;1.77;;;;;;;;;;6311491;28;20610;-59
2024/03/10 04:14:44;;;;;;;1.90;1.90;;;;;;;;;;6311528;28;20303;-59
2024/03/10 04:17:49;;;;;;;1.80;1.80;;;;;;;;;;6311734;28;20290;-59
2024/03/10 04:20:53;;;;;;;1.87;1.87;;;;;;;;;;6311904;28;20601;-59
2024/03/10 04:23:57;;;;;;;1.87;1.87;;;;;;;;;;6311745;28;20298;-60
2024/03/10 04:27:01;;;;;;;2.93;1.90;;;;;;;;;;6311913;28;20605;-60
2024/03/10 04:30:06;;;;;;;2.03;1.87;;;;;;;;;;6311311;28;20288;-60
2024/03/10 04:33:12;;;;;;;1.80;1.70;;;;;;;;;;6311364;28;20289;-60
2024/03/10 04:36:17;;;;;;;1.93;1.90;;;;;;;;;;6311932;28;20310;-61
2024/03/10 04:39:22;;;;;;;2.00;1.90;;;;;;;;;;6311373;28;20290;-59
2024/03/10 04:42:26;;;;;;;1.57;1.57;;;;;;;;;;6311628;28;20302;-59
2024/03/10 04:45:30;;;;;;;1.80;1.80;;;;;;;;;;6310699;28;20306;-59
2024/03/10 04:48:36;;;;;;;3.43;2.10;;;;;;;;;;6310994;28;20302;-59
2024/03/10 04:51:40;;;;;;;2.00;1.90;;;;;;;;;;6311816;28;20291;-59
2024/03/10 04:54:45;;;;;;;2.77;1.90;;;;;;;;;;6310919;28;20293;-59
2024/03/10 04:57:49;;;;;;;2.30;1.90;;;;;;;;;;6310730;28;20387;-59
2024/03/10 05:00:53;;;;;;;3.13;1.93;;;;;;;;;;6310067;28;20476;-59
2024/03/10 05:03:59;;;;;;;1.90;1.90;;;;;;;;;;6310149;28;20576;-59
2024/03/10 05:07:05;;;;;;;3.40;1.87;;;;;;;;;;6311038;28;20370;-59
2024/03/10 05:10:09;;;;;;;3.10;2.07;;;;;;;;;;6309931;28;20306;-59
2024/03/10 05:13:13;;;;;;;1.60;1.60;;;;;;;;;;6310287;28;20294;-59
2024/03/10 05:16:17;;;;;;;1.60;1.60;;;;;;;;;;6310957;28;20290;-59
2024/03/10 05:19:23;;;;;;;1.60;1.60;;;;;;;;;;6310118;28;20436;-59
2024/03/10 05:22:27;;;;;;;1.70;1.60;;;;;;;;;;6310292;28;20318;-59
2024/03/10 05:25:30;;;;;;;2.93;1.60;;;;;;;;;;6310134;28;20308;-59
2024/03/10 05:28:35;;;;;;;2.70;1.50;;;;;;;;;;6309862;28;20314;-59
2024/03/10 05:31:39;;;;;;;1.90;1.87;;;;;;;;;;6310355;28;20308;-58
2024/03/10 05:34:44;;;;;;;2.33;1.83;;;;;;;;;;6293402;28;20598;-58
2024/03/10 05:37:48;;;;;;;1.60;1.60;;;;;;;;;;6283979;28;20269;-59
2024/03/10 05:40:52;;;;;;;1.60;1.50;;;;;;;;;;6285200;28;20251;-60
2024/03/10 05:43:56;;;;;;;1.83;1.67;;;;;;;;;;6284786;28;20296;-60
2024/03/10 05:47:00;;;;;;;1.80;1.70;;;;;;;;;;6284733;28;20241;-60
2024/03/10 05:50:07;;;;;;;1.43;1.43;;;;;;;;;;6284762;28;20593;-60
2024/03/10 05:53:12;;;;;;;2.23;1.70;;;;;;;;;;6284695;28;20310;-60
2024/03/10 05:56:16;;;;;;;1.47;1.47;;;;;;;;;;6285133;28;20288;-60
2024/03/10 05:59:20;;;;;;;2.10;2.10;;;;;;;;;;6284229;28;20416;-60
2024/03/10 06:02:24;;;;;;;1.90;1.90;;;;;;;;;;6284976;28;20321;-59
2024/03/10 06:05:30;;;;;;;1.80;1.80;;;;;;;;;;6284507;28;20299;-59
2024/03/10 06:08:34;;;;;;;2.30;2.10;;;;;;;;;;6284467;28;20300;-60
2024/03/10 06:11:38;;;;;;;1.73;1.70;;;;;;;;;;6303671;28;20299;-59
2024/03/10 06:14:42;;;;;;;1.70;1.70;;;;;;;;;;6309335;28;20299;-59
2024/03/10 06:18:03;;;;;;;2.83;1.77;;;;;;;;;;6309523;28;20303;-60
2024/03/10 06:27:51;;;;;;;3.60;1.87;;;;;;;;;;6308964;28;20290;-60
2024/03/10 06:30:58;;;;;;;2.23;2.07;;;;;;;;;;6309272;28;20297;-59
2024/03/10 06:34:02;;;;;;;2.50;2.30;;;;;;;;;;6290173;28;20315;-60
2024/03/10 06:37:07;;;;;;;2.00;1.90;;;;;;;;;;6291599;28;20306;-59
2024/03/10 06:40:12;;;;;;;2.00;2.00;;;;;;;;;;6300281;28;20306;-59
2024/03/10 06:43:16;;;;;;;2.13;2.07;;;;;;;;;;6308557;28;20296;-59
2024/03/10 06:46:21;;;;;;;2.60;1.73;;;;;;;;;;6309291;28;20296;-60
2024/03/10 06:49:26;;;;;;;2.00;1.73;;;;;;;;;;6308559;28;20593;-60
2024/03/10 06:52:32;;;;;;;1.87;1.80;;;;;;;;;;6308606;28;20308;-61
2024/03/10 06:55:36;;;;;;;5.50;2.13;;;;;;;;;;6309200;28;20295;-59
2024/03/10 06:58:43;;;;;;;4.30;1.70;;;;;;;;;;6308598;28;20286;-59
2024/03/10 07:01:47;;;;;;;1.60;1.60;;;;;;;;;;6307866;28;20445;-61
2024/03/10 07:04:51;;;;;;;1.83;1.73;;;;;;;;;;6307993;28;20297;-60
2024/03/10 07:07:56;;;;;;;1.90;1.50;;;;;;;;;;6308119;28;20481;-60
2024/03/10 07:11:00;;;;;;;1.63;1.60;;;;;;;;;;6283695;28;20235;-60
2024/03/10 07:14:04;;;;;;;1.70;1.60;;;;;;;;;;6283274;28;20486;-59
2024/03/10 07:17:08;;;;;;;1.77;1.70;;;;;;;;;;6283977;28;20293;-59
2024/03/10 07:20:13;;;;;;;1.40;1.40;;;;;;;;;;6275651;28;20296;-59
2024/03/10 07:23:21;;;;;;;1.50;1.50;;;;;;;;;;6283600;28;20290;-59
2024/03/10 07:26:26;;;;;;;3.07;1.67;;;;;;;;;;6288558;28;20292;-59
2024/03/10 07:29:30;;;;;;;2.77;1.63;;;;;;;;;;6287655;28;20313;-59
2024/03/10 07:32:34;;;;;;;1.70;1.60;;;;;;;;;;6287345;28;20296;-60
2024/03/10 07:35:38;;;;;;;1.30;1.30;;;;;;;;;;6288107;28;20291;-59
2024/03/10 07:38:44;;;;;;;2.20;1.50;;;;;;;;;;6287269;28;20295;-59
2024/03/10 07:41:48;;;;;;;1.80;1.50;;;;;;;;;;6287970;28;20310;-61
2024/03/10 07:44:53;;;;;;;1.80;1.70;;;;;;;;;;6287348;28;20558;-59
2024/03/10 07:47:58;;;;;;;1.30;1.30;;;;;;;;;;6269225;28;20306;-59
2024/03/10 07:51:03;;;;;;;1.40;1.40;;;;;;;;;;6287872;28;20297;-60
2024/03/10 07:54:10;;;;;;;1.37;1.30;;;;;;;;;;6286776;28;20300;-59
2024/03/10 07:57:14;;;;;;;1.60;1.60;;;;;;;;;;6288081;28;20301;-58
2024/03/10 08:00:22;;;;;;;1.53;1.37;;;;;;;;;;6269068;28;20481;-59
2024/03/10 08:03:26;;;;;;;3.30;1.73;;;;;;;;;;6286932;28;20287;-60
2024/03/10 08:06:30;;;;;;;1.53;1.53;;;;;;;;;;6287388;28;20305;-59
2024/03/10 08:09:35;;;;;;;1.53;1.50;;;;;;;;;;6300165;28;20310;-59
2024/03/10 08:12:39;;;;;;;1.50;1.50;;;;;;;;;;6312010;28;20531;-59
2024/03/10 08:15:44;;;;;;;1.30;1.30;;;;;;;;;;6312478;28;20300;-60
2024/03/10 08:18:48;;;;;;;2.00;1.60;;;;;;;;;;6311833;28;20291;-60
2024/03/10 08:21:53;;;;;;;1.90;1.80;;;;;;;;;;6312159;28;20572;-60
2024/03/10 08:24:59;;;;;;;1.90;1.80;;;;;;;;;;6311255;28;20582;-59
2024/03/10 08:28:04;;;;;;;1.70;1.70;;;;;;;;;;6311452;28;20292;-60
2024/03/10 08:31:09;;;;;;;1.73;1.70;;;;;;;;;;6311630;28;20309;-59
2024/03/10 08:34:13;;;;;;;1.40;1.40;;;;;;;;;;6311112;28;20290;-60
2024/03/10 08:37:17;;;;;;;1.57;1.57;;;;;;;;;;6312041;28;20322;-60
2024/03/10 08:40:22;;;;;;;1.40;1.40;;;;;;;;;;6311554;28;20297;-60
2024/03/10 08:43:26;;;;;;;1.90;1.40;;;;;;;;;;6311413;28;20492;-59
2024/03/10 08:46:30;;;;;;;1.40;1.40;;;;;;;;;;6311506;28;20317;-59
2024/03/10 08:49:34;;;;;;;1.40;1.40;;;;;;;;;;6311043;28;20461;-59
2024/03/10 08:52:38;;;;;;;1.67;1.57;;;;;;;;;;6310747;28;20292;-59
2024/03/10 08:55:44;;;;;;;4.50;1.37;;;;;;;;;;6311412;28;20298;-59
2024/03/10 08:58:48;;;;;;;1.60;1.50;;;;;;;;;;6309594;28;20309;-58
2024/03/10 09:01:52;;;;;;;2.90;1.30;;;;;;;;;;6293005;28;20546;-59
2024/03/10 09:04:56;;;;;;;1.80;1.80;;;;;;;;;;6310663;28;20294;-59
2024/03/10 09:08:00;;;;;;;1.33;1.33;;;;;;;;;;6310368;28;20290;-60
2024/03/10 09:11:06;;;;;;;1.43;1.43;;;;;;;;;;6310785;28;20241;-59
2024/03/10 09:14:10;;;;;;;1.40;1.40;;;;;;;;;;6310274;28;20294;-59
2024/03/10 09:17:14;;;;;;;4.10;1.80;;;;;;;;;;6310600;28;20305;-59
2024/03/10 09:20:22;;;;;;;3.03;1.40;;;;;;;;;;6309800;28;20306;-60
2024/03/10 09:23:27;;;;;;;2.67;1.60;;;;;;;;;;6309579;28;20297;-59
2024/03/10 09:26:33;;;;;;;1.33;1.33;;;;;;;;;;6309849;28;20297;-60
2024/03/10 09:29:37;;;;;;;1.50;1.47;;;;;;;;;;6309791;28;20303;-61
2024/03/10 09:32:42;;;;;;;2.40;1.53;;;;;;;;;;6309748;28;20342;-60
2024/03/10 09:35:48;;;;;;;4.97;1.87;;;;;;;;;;6310133;28;20469;-60
2024/03/10 09:38:52;;;;;;;1.67;1.60;;;;;;;;;;6309659;28;20293;-61
2024/03/10 09:41:57;;;;;;;1.40;1.40;;;;;;;;;;6310200;28;20305;-60
2024/03/10 09:45:01;;;;;;;1.40;1.30;;;;;;;;;;6309500;28;20297;-60
2024/03/10 09:48:10;;;;;;;1.70;1.70;;;;;;;;;;6309249;28;20286;-60
2024/03/10 09:51:15;;;;;;;2.87;1.50;;;;;;;;;;6310374;28;20296;-60
2024/03/10 09:54:21;;;;;;;1.60;1.57;;;;;;;;;;6309649;28;20292;-59
2024/03/10 09:57:27;;;;;;;1.70;1.60;;;;;;;;;;6310132;28;20301;-60
2024/03/10 10:00:31;;;;;;;1.80;1.70;;;;;;;;;;6309220;28;20293;-59
2024/03/10 10:03:36;;;;;;;1.90;1.60;;;;;;;;;;6309698;28;20581;-59
2024/03/10 10:06:41;;;;;;;1.70;1.60;;;;;;;;;;6309885;28;20584;-59
2024/03/10 10:09:55;;;;;;;1.80;1.70;;;;;;;;;;6305948;28;20303;-60
2024/03/10 10:13:00;;;;;;;3.90;1.63;;;;;;;;;;6307764;28;20575;-60
2024/03/10 10:16:08;;;;;;;1.83;1.73;;;;;;;;;;6309908;28;20292;-60
2024/03/10 10:19:15;;;;;;;6.80;1.80;;;;;;;;;;6309077;28;20476;-60
2024/03/10 10:22:20;;;;;;;1.80;1.63;;;;;;;;;;6309535;28;20591;-60
2024/03/10 10:25:25;;;;;;;3.97;1.70;;;;;;;;;;6309156;28;20302;-60
2024/03/10 10:28:32;;;;;;;1.93;1.50;;;;;;;;;;6309303;28;20282;-61
2024/03/10 10:31:37;;;;;;;3.33;1.50;;;;;;;;;;6309792;28;20296;-60
2024/03/10 10:34:41;;;;;;;1.60;1.60;;;;;;;;;;6309455;28;20298;-60
2024/03/10 10:37:46;;;;;;;1.93;1.63;;;;;;;;;;6309100;28;20323;-58
2024/03/10 10:40:51;;;;;;;3.70;1.50;;;;;;;;;;6308361;28;20269;-61
2024/03/10 10:43:58;;;;;;;2.20;1.43;;;;;;;;;;6306446;28;20438;-61
2024/03/10 10:47:02;;;;;;;3.33;1.73;;;;;;;;;;6308843;28;20581;-59
2024/03/10 10:50:20;;;;;;;1.97;1.70;;;;;;;;;;6308797;28;20406;-60
2024/03/10 10:53:24;;;;;;;1.70;1.60;;;;;;;;;;6309067;28;20473;-60
2024/03/10 10:56:28;;;;;;;1.53;1.53;;;;;;;;;;6309577;28;20315;-60
2024/03/10 10:59:40;;;;;;;3.20;1.70;;;;;;;;;;6311051;28;20290;-58
2024/03/10 11:02:44;;;;;;;2.40;1.67;;;;;;;;;;6312997;28;20294;-60
2024/03/10 11:06:21;;;;;;;3.40;1.80;;;;;;;;;;6313578;28;20301;-60
2024/03/10 11:09:30;;;;;;;1.60;1.60;;;;;;;;;;6312874;28;20354;-60
2024/03/10 11:12:36;;;;;;;2.93;1.67;;;;;;;;;;6313010;28;20555;-59
2024/03/10 11:15:42;;;;;;;3.80;1.73;;;;;;;;;;6312127;28;20290;-60
2024/03/10 11:18:46;;;;;;;3.33;1.90;;;;;;;;;;6311938;28;20306;-60
2024/03/10 11:21:51;;;;;;;1.50;1.50;;;;;;;;;;6312295;28;20407;-59
2024/03/10 11:25:16;;;;;;;1.50;1.50;;;;;;;;;;6311382;28;20293;-60
2024/03/10 11:28:25;;;;;;;1.53;1.43;;;;;;;;;;6311086;28;20314;-59
2024/03/10 11:31:40;;;;;;;1.50;1.50;;;;;;;;;;6309873;28;20550;-59
2024/03/10 11:34:44;;;;;;;2.30;1.60;;;;;;;;;;6311227;28;20290;-60
2024/03/10 11:37:49;;;;;;;3.53;1.60;;;;;;;;;;6310545;28;20506;-61
2024/03/10 11:40:58;;;;;;;1.83;1.83;;;;;;;;;;6311345;28;20319;-59
2024/03/10 11:44:02;;;;;;;2.10;1.63;;;;;;;;;;6310802;28;20291;-59
2024/03/10 11:47:12;;;;;;;1.57;1.57;;;;;;;;;;6311593;28;20305;-59
2024/03/10 11:50:16;;;;;;;2.20;1.57;;;;;;;;;;6310582;28;20298;-59
2024/03/10 11:53:21;;;;;;;2.20;2.10;;;;;;;;;;6310520;28;20297;-60
2024/03/10 11:56:26;;;;;;;3.60;1.90;;;;;;;;;;6292909;28;20314;-58
2024/03/10 11:59:30;;;;;;;2.93;1.70;;;;;;;;;;6310264;28;20295;-59
2024/03/10 12:02:36;;;;;;;1.80;1.70;;;;;;;;;;6310514;28;20595;-61
2024/03/10 12:05:40;;;;;;;4.23;1.70;;;;;;;;;;6311573;28;20590;-58
2024/03/10 12:08:44;;;;;;;1.47;1.47;;;;;;;;;;6310387;28;20293;-59
2024/03/10 12:11:49;;;;;;;1.57;1.50;;;;;;;;;;6310272;28;20321;-59
2024/03/10 12:14:54;;;;;;;2.77;1.57;;;;;;;;;;6310587;28;20620;-60
2024/03/10 12:18:00;;;;;;;4.37;1.70;;;;;;;;;;6310317;28;20298;-58
2024/03/10 12:21:07;;;;;;;5.10;1.70;;;;;;;;;;6310740;28;20291;-59
2024/03/10 12:24:13;;;;;;;2.87;1.43;;;;;;;;;;6309945;28;20294;-60
2024/03/10 12:27:17;;;;;;;1.40;1.40;;;;;;;;;;6310497;28;20305;-60
2024/03/10 12:30:21;;;;;;;1.50;1.50;;;;;;;;;;6291479;28;20453;-60
2024/03/10 12:33:27;;;;;;;1.53;1.40;;;;;;;;;;6309355;28;20293;-60
2024/03/10 12:36:33;;;;;;;3.57;1.70;;;;;;;;;;6309837;28;20298;-59
2024/03/10 12:39:37;;;;;;;1.80;1.80;;;;;;;;;;6309463;28;20488;-60
2024/03/10 12:42:43;;;;;;;1.53;1.53;;;;;;;;;;6309636;28;20465;-60
2024/03/10 12:45:48;;;;;;;1.60;1.60;;;;;;;;;;6309729;28;20294;-60
2024/03/10 12:48:53;;;;;;;1.47;1.47;;;;;;;;;;6308876;28;20362;-60
2024/03/10 12:51:58;;;;;;;2.83;1.50;;;;;;;;;;6309660;28;20305;-60
2024/03/10 12:55:02;;;;;;;3.80;1.83;;;;;;;;;;6308919;28;20460;-60
2024/03/10 12:58:07;;;;;;;2.73;1.77;;;;;;;;;;6308822;28;20309;-60
2024/03/10 13:01:11;;;;;;;1.60;1.60;;;;;;;;;;6309294;28;20582;-61
2024/03/10 13:04:17;;;;;;;1.50;1.50;;;;;;;;;;6285858;28;20291;-60
2024/03/10 13:07:20;;;;;;;2.77;1.70;;;;;;;;;;6284391;28;20465;-60
2024/03/10 13:10:25;;;;;;;1.67;1.67;;;;;;;;;;6292743;28;20295;-59
2024/03/10 13:13:29;;;;;;;1.60;1.60;;;;;;;;;;6290638;28;20474;-60
2024/03/10 13:16:33;;;;;;;1.50;1.50;;;;;;;;;;6309536;28;20595;-60
2024/03/10 13:19:42;;;;;;;1.80;1.70;;;;;;;;;;6291073;28;20264;-60
2024/03/10 13:22:46;;;;;;;4.50;1.70;;;;;;;;;;6307591;28;20294;-61
2024/03/10 13:25:50;;;;;;;1.77;1.77;;;;;;;;;;6308154;28;20295;-61
2024/03/10 13:28:54;;;;;;;1.87;1.77;;;;;;;;;;6308416;28;20301;-60
2024/03/10 13:31:58;;;;;;;1.90;1.60;;;;;;;;;;6308646;28;20305;-61
2024/03/10 13:35:08;;;;;;;1.80;1.80;;;;;;;;;;6308049;28;20583;-60
2024/03/10 13:38:13;;;;;;;1.70;1.70;;;;;;;;;;6277639;28;20582;-58
2024/03/10 13:41:21;;;;;;;1.60;1.60;;;;;;;;;;6309169;28;20289;-59
2024/03/10 13:44:25;;;;;;;1.83;1.73;;;;;;;;;;6308252;28;20293;-60
2024/03/10 13:47:29;;;;;;;1.87;1.77;;;;;;;;;;6304243;28;20294;-59
2024/03/10 13:50:35;;;;;;;1.70;1.60;;;;;;;;;;6306327;28;20464;-60
2024/03/10 13:53:39;;;;;;;1.80;1.70;;;;;;;;;;6308416;28;20290;-60
2024/03/10 13:56:44;;;;;;;1.73;1.73;;;;;;;;;;6307818;28;20294;-60
2024/03/10 13:59:49;;;;;;;1.97;1.87;;;;;;;;;;6308170;28;20301;-61
2024/03/10 14:02:53;;;;;;;1.70;1.70;;;;;;;;;;6307470;28;20294;-60
2024/03/10 14:06:00;;;;;;;2.00;2.00;;;;;;;;;;6307364;28;20295;-61
2024/03/10 14:09:04;;;;;;;1.90;1.80;;;;;;;;;;6307698;28;20298;-60
2024/03/10 14:12:08;;;;;;;2.30;1.70;;;;;;;;;;6289341;28;20314;-61
2024/03/10 14:15:14;;;;;;;3.47;1.70;;;;;;;;;;6307173;28;20294;-61
2024/03/10 14:18:20;;;;;;;2.87;2.07;;;;;;;;;;6307934;28;20290;-61
2024/03/10 14:21:26;;;;;;;1.93;1.83;;;;;;;;;;6307446;28;20369;-60
2024/03/10 14:24:30;;;;;;;1.73;1.63;;;;;;;;;;6307816;28;20305;-60
2024/03/10 14:27:34;;;;;;;2.10;2.00;;;;;;;;;;6307537;28;20290;-60
2024/03/10 14:30:42;;;;;;;1.80;1.80;;;;;;;;;;6307143;28;20298;-60
2024/03/10 14:33:45;;;;;;;1.63;1.63;;;;;;;;;;6310521;28;20297;-60
2024/03/10 14:36:52;;;;;;;3.33;1.80;;;;;;;;;;6312738;28;20297;-60
2024/03/10 14:39:57;;;;;;;4.00;1.83;;;;;;;;;;6313106;28;20291;-60
2024/03/10 14:43:00;;;;;;;2.60;1.90;;;;;;;;;;6312332;28;20311;-60
2024/03/10 14:46:05;;;;;;;2.07;1.90;;;;;;;;;;6312703;28;20594;-60
2024/03/10 14:49:09;;;;;;;2.60;1.90;;;;;;;;;;6312825;28;20298;-61
2024/03/10 14:52:14;;;;;;;4.27;2.00;;;;;;;;;;6312339;28;20290;-60
2024/03/10 14:55:19;;;;;;;1.73;1.70;;;;;;;;;;6312361;28;20610;-60
2024/03/10 14:58:23;;;;;;;1.90;1.80;;;;;;;;;;6312471;28;20293;-60
2024/03/10 15:01:27;;;;;;;1.93;1.67;;;;;;;;;;6311788;28;20308;-60
2024/03/10 15:04:35;;;;;;;1.90;1.80;;;;;;;;;;6312274;28;20300;-61
2024/03/10 15:07:40;;;;;;;1.80;1.70;;;;;;;;;;6311931;28;20314;-60
2024/03/10 15:10:46;;;;;;;1.87;1.83;;;;;;;;;;6304205;28;20306;-59
2024/03/10 15:13:50;;;;;;;2.93;1.90;;;;;;;;;;6311496;28;20293;-59
2024/03/10 15:16:54;;;;;;;4.73;2.20;;;;;;;;;;6311080;28;20294;-59
2024/03/10 15:19:58;;;;;;;2.97;1.87;;;;;;;;;;6311796;28;20299;-61
2024/03/10 15:23:03;;;;;;;2.27;1.90;;;;;;;;;;6310760;28;20312;-60
2024/03/10 15:26:07;;;;;;;2.43;2.00;;;;;;;;;;6311054;28;20551;-59
2024/03/10 15:29:13;;;;;;;2.10;2.00;;;;;;;;;;6311634;28;20293;-60
2024/03/10 15:32:18;;;;;;;1.77;1.73;;;;;;;;;;6310981;28;20289;-60
2024/03/10 15:35:22;;;;;;;4.20;2.00;;;;;;;;;;6310998;28;20420;-60
2024/03/10 15:38:28;;;;;;;2.77;1.83;;;;;;;;;;6311569;28;20538;-60
2024/03/10 15:41:33;;;;;;;1.90;1.80;;;;;;;;;;6310699;28;20295;-60
2024/03/10 15:44:37;;;;;;;2.80;1.73;;;;;;;;;;6310572;28;20288;-60
2024/03/10 15:47:41;;;;;;;8.57;1.83;;;;;;;;;;6311018;28;20302;-60
2024/03/10 15:50:45;;;;;;;1.87;1.80;;;;;;;;;;6292202;28;20309;-60
2024/03/10 15:53:51;;;;;;;1.63;1.50;;;;;;;;;;6310901;28;20299;-60
2024/03/10 15:56:55;;;;;;;2.73;1.87;;;;;;;;;;6310938;28;20322;-60
2024/03/10 15:59:59;;;;;;;1.80;1.80;;;;;;;;;;6311148;28;20633;-61
2024/03/10 16:03:10;;;;;;;1.97;1.90;;;;;;;;;;6310582;28;20302;-61
2024/03/10 16:06:15;;;;;;;1.80;1.63;;;;;;;;;;6310162;28;20289;-60
2024/03/10 16:09:21;;;;;;;4.47;2.07;;;;;;;;;;6310355;28;20317;-60
2024/03/10 16:12:28;;;;;;;1.70;1.70;;;;;;;;;;6320395;28;20338;-60
2024/03/10 16:15:33;;;;;;;3.70;2.00;;;;;;;;;;6335419;28;20467;-60
2024/03/10 16:18:38;;;;;;;2.60;1.90;;;;;;;;;;6335850;28;20317;-60
2024/03/10 16:21:43;;;;;;;2.10;2.00;;;;;;;;;;6335213;28;20300;-61
2024/03/10 16:24:48;;;;;;;5.13;2.20;;;;;;;;;;6335620;28;20289;-60
2024/03/10 16:27:52;;;;;;;4.30;2.03;;;;;;;;;;6335181;28;20288;-59
2024/03/10 16:30:56;;;;;;;2.03;1.93;;;;;;;;;;6334919;28;20293;-60
2024/03/10 16:34:00;;;;;;;2.17;2.10;;;;;;;;;;6335984;28;20501;-61
2024/03/10 16:37:05;;;;;;;2.50;2.00;;;;;;;;;;6334706;28;20302;-61
2024/03/10 16:40:12;;;;;;;2.10;2.00;;;;;;;;;;6334956;28;20305;-61
2024/03/10 16:43:16;;;;;;;3.67;1.80;;;;;;;;;;6335572;28;20281;-61
2024/03/10 16:46:23;;;;;;;2.70;2.20;;;;;;;;;;6334909;28;20292;-60
2024/03/10 16:49:27;;;;;;;2.13;2.03;;;;;;;;;;6334667;28;20290;-60
2024/03/10 16:52:31;;;;;;;2.10;2.00;;;;;;;;;;6334382;28;20554;-61
2024/03/10 16:55:38;;;;;;;4.10;2.00;;;;;;;;;;6334290;28;20309;-60
2024/03/10 16:58:44;;;;;;;4.37;1.60;;;;;;;;;;6334686;28;20295;-60
2024/03/10 17:01:48;;;;;;;2.03;2.00;;;;;;;;;;6333984;28;20297;-60
2024/03/10 17:04:52;;;;;;;4.20;2.10;;;;;;;;;;6333796;28;20463;-60
2024/03/10 17:07:57;;;;;;;2.10;1.90;;;;;;;;;;6334223;28;20291;-60
2024/03/10 17:11:04;;;;;;;5.20;2.10;;;;;;;;;;6333781;28;20300;-61
2024/03/10 17:14:08;;;;;;;2.50;1.87;;;;;;;;;;6334596;28;20469;-61
2024/03/10 17:17:13;;;;;;;4.47;2.10;;;;;;;;;;6334017;28;20283;-61
2024/03/10 17:20:22;;;;;;;1.87;1.87;;;;;;;;;;6334032;28;20296;-60
2024/03/10 17:23:28;;;;;;;3.00;2.10;;;;;;;;;;6334451;28;20291;-61
2024/03/10 17:26:33;;;;;;;2.30;2.20;;;;;;;;;;6333577;28;20293;-59
2024/03/10 17:29:37;;;;;;;1.87;1.87;;;;;;;;;;6334248;28;20300;-60
2024/03/10 17:36:12;;;;;;;4.47;1.87;;;;;;;;;;6806091;23;20711;-60
2024/03/10 17:39:17;;;;;;;1.77;1.77;;;;;;;;;;6154063;28;20604;-61
2024/03/10 17:42:22;;;;;;;2.93;1.90;;;;;;;;;;6161344;28;20297;-59
2024/03/10 17:45:26;;;;;;;3.03;2.00;;;;;;;;;;6157167;28;20312;-60
2024/03/10 17:48:32;;;;;;;2.10;1.90;;;;;;;;;;6162852;28;20297;-61
2024/03/10 17:51:36;;;;;;;4.00;2.17;;;;;;;;;;6161495;28;20301;-60
2024/03/10 17:54:40;;;;;;;1.67;1.67;;;;;;;;;;6152638;28;20297;-60
2024/03/10 17:57:47;;;;;;;1.87;1.80;;;;;;;;;;6161753;28;20300;-60
2024/03/10 18:00:51;;;;;;;3.70;2.00;;;;;;;;;;6161778;28;20299;-60
2024/03/10 18:03:56;;;;;;;3.30;2.03;;;;;;;;;;6162339;28;20294;-60
2024/03/10 18:07:01;;;;;;;4.63;2.50;;;;;;;;;;6159725;28;20297;-61
2024/03/10 18:10:14;;;;;;;4.27;1.97;;;;;;;;;;6156050;28;20310;-61
2024/03/10 18:13:19;;;;;;;1.90;1.90;;;;;;;;;;6161542;28;20300;-60
2024/03/10 18:16:22;;;;;;;2.43;2.33;;;;;;;;;;6161261;28;20301;-59
2024/03/10 18:19:26;;;;;;;2.33;2.23;;;;;;;;;;6161886;28;20294;-59
2024/03/10 18:22:30;;;;;;;2.67;2.20;;;;;;;;;;6161434;28;20605;-61
2024/03/10 18:25:34;;;;;;;2.20;1.97;;;;;;;;;;6161382;28;20298;-60
2024/03/10 18:28:39;;;;;;;1.97;1.90;;;;;;;;;;6161112;28;20556;-60
2024/03/10 18:31:43;;;;;;;2.57;2.33;;;;;;;;;;6160790;28;20297;-60
2024/03/10 18:34:47;;;;;;;2.50;2.10;;;;;;;;;;6160938;28;20296;-60
2024/03/10 18:37:51;;;;;;;1.70;1.67;;;;;;;;;;6160867;28;20310;-60
2024/03/10 18:40:55;;;;;;;2.83;1.90;;;;;;;;;;6160426;28;20309;-60
2024/03/10 18:44:02;;;;;;;2.90;1.70;;;;;;;;;;6155968;28;20295;-62
2024/03/10 18:47:06;;;;;;;1.90;1.90;;;;;;;;;;6160784;28;20317;-60
2024/03/10 18:50:11;;;;;;;3.70;2.03;;;;;;;;;;6160827;28;20304;-60
2024/03/10 18:53:15;;;;;;;4.87;2.70;;;;;;;;;;6161475;28;20300;-60
2024/03/10 18:56:20;;;;;;;3.60;2.13;;;;;;;;;;6161074;28;20294;-60